Time;durP1;ratioP1;P1;durP2;ratioP2;P2;SDS_P1;SDS_P2;PMS_P1;PMS_P2;Temp;Humidity;BMP_temperature;BMP_pressure;BME280_temperature;BME280_humidity;BME280_pressure;Samples;Min_cycle;Max_cycle;Signal;HPM_P1;HPM_P2
2022/04/07 00:00:49;;;;;;;10.45;5.90;;;;;;;10.91;70.68;98395.53;5026181;28;20038;-56
2022/04/07 00:03:15;;;;;;;9.50;4.95;;;;;;;10.81;71.14;98387.28;5035815;28;20079;-56
2022/04/07 00:05:41;;;;;;;7.60;4.88;;;;;;;10.88;70.84;98388.66;5029921;28;20061;-57
2022/04/07 00:08:06;;;;;;;8.35;4.88;;;;;;;10.88;70.88;98383.41;5025144;28;20155;-58
2022/04/07 00:10:33;;;;;;;10.73;5.57;;;;;;;10.86;71.03;98382.66;5024874;28;20127;-56
2022/04/07 00:12:59;;;;;;;9.60;5.63;;;;;;;10.80;71.14;98375.94;5028647;28;20041;-56
2022/04/07 00:15:25;;;;;;;13.50;6.55;;;;;;;10.86;71.10;98369.53;5033736;28;20497;-57
2022/04/07 00:17:50;;;;;;;10.60;5.60;;;;;;;10.82;71.02;98362.75;5033967;28;20381;-57
2022/04/07 00:20:16;;;;;;;9.40;5.00;;;;;;;10.78;71.37;98359.44;5031223;28;20469;-56
2022/04/07 00:22:42;;;;;;;9.00;5.07;;;;;;;10.81;71.34;98356.66;5035420;28;20021;-57
2022/04/07 00:25:07;;;;;;;10.40;6.00;;;;;;;10.64;71.99;98366.34;5028645;28;20037;-59
2022/04/07 00:27:33;;;;;;;9.48;5.18;;;;;;;10.69;71.84;98351.19;5028857;28;20044;-57
2022/04/07 00:29:58;;;;;;;10.40;4.95;;;;;;;10.66;71.95;98351.38;5031499;28;20040;-57
2022/04/07 00:32:24;;;;;;;9.23;5.25;;;;;;;10.64;72.03;98354.06;5034879;28;20039;-57
2022/04/07 00:34:54;;;;;;;8.80;5.18;;;;;;;10.62;72.07;98342.81;5034790;28;20544;-57
2022/04/07 00:37:23;;;;;;;7.65;5.03;;;;;;;10.62;72.27;98340.19;5032249;28;20037;-57
2022/04/07 00:39:52;;;;;;;10.73;5.97;;;;;;;10.66;71.98;98338.25;5033793;28;20050;-58
2022/04/07 00:42:18;;;;;;;7.68;4.88;;;;;;;10.67;71.97;98334.69;5027895;28;20092;-56
2022/04/07 00:44:44;;;;;;;8.15;4.78;;;;;;;10.66;71.80;98322.50;5030940;28;20037;-57
2022/04/07 00:47:10;;;;;;;9.20;5.28;;;;;;;10.64;71.99;98326.97;5027016;28;20064;-58
2022/04/07 00:49:35;;;;;;;10.70;5.95;;;;;;;10.62;71.96;98328.84;5034114;28;20091;-56
2022/04/07 00:52:01;;;;;;;9.15;4.85;;;;;;;10.64;71.85;98321.72;5025148;28;20105;-59
2022/04/07 00:54:27;;;;;;;7.75;5.00;;;;;;;10.68;71.67;98318.81;5033936;28;20104;-56
2022/04/07 00:56:55;;;;;;;10.15;5.05;;;;;;;10.51;71.64;98314.50;5033692;28;20064;-58
2022/04/07 00:59:23;;;;;;;8.38;4.72;;;;;;;10.54;71.61;98316.97;5029072;28;20052;-57
2022/04/07 01:01:49;;;;;;;7.03;4.40;;;;;;;10.50;72.00;98320.69;5011368;28;20033;-55
2022/04/07 01:04:15;;;;;;;7.70;4.80;;;;;;;10.55;71.75;98313.41;5028976;28;20476;-57
2022/04/07 01:06:47;;;;;;;12.70;5.80;;;;;;;10.55;71.67;98316.03;5019526;28;20042;-56
2022/04/07 01:09:15;;;;;;;10.93;5.22;;;;;;;10.54;71.59;98306.47;5034002;28;20476;-56
2022/04/07 01:11:40;;;;;;;10.30;5.35;;;;;;;10.54;71.34;98303.84;5032211;28;20025;-57
2022/04/07 01:14:06;;;;;;;9.00;5.18;;;;;;;10.51;71.31;98309.25;5031719;28;20116;-55
2022/04/07 01:16:32;;;;;;;12.02;5.38;;;;;;;10.44;71.39;98300.00;5012137;28;20057;-57
2022/04/07 01:18:59;;;;;;;8.52;5.03;;;;;;;10.43;71.56;98293.06;5034552;28;20038;-56
2022/04/07 01:21:27;;;;;;;10.95;5.13;;;;;;;10.33;71.44;98302.34;5022240;28;20030;-56
2022/04/07 01:24:02;;;;;;;9.50;4.05;;;;;;;10.30;71.57;98292.88;5034375;28;20033;-57
2022/04/07 01:26:31;;;;;;;12.80;5.53;;;;;;;10.34;71.31;98283.06;5032801;28;20026;-56
2022/04/07 01:28:59;;;;;;;10.38;5.00;;;;;;;10.42;71.22;98288.75;5028849;28;20083;-56
2022/04/07 01:31:25;;;;;;;8.05;3.92;;;;;;;10.34;71.31;98280.44;5026686;28;20087;-57
2022/04/07 01:33:50;;;;;;;9.25;4.25;;;;;;;10.34;71.20;98283.06;5029944;28;20045;-56
2022/04/07 01:36:17;;;;;;;7.53;4.40;;;;;;;10.32;71.25;98279.66;5034345;28;20461;-57
2022/04/07 01:38:44;;;;;;;8.20;4.20;;;;;;;10.34;71.12;98270.78;5027589;28;20095;-56
2022/04/07 01:41:10;;;;;;;8.60;3.92;;;;;;;10.35;71.02;98275.09;5034324;28;20061;-55
2022/04/07 01:43:38;;;;;;;7.90;4.13;;;;;;;10.35;71.14;98271.63;5033631;28;20499;-56
2022/04/07 01:46:03;;;;;;;7.70;4.00;;;;;;;10.26;71.31;98278.22;5029709;28;20041;-55
2022/04/07 01:48:29;;;;;;;5.80;3.70;;;;;;;10.28;71.14;98278.13;5031781;28;20550;-56
2022/04/07 01:50:56;;;;;;;8.32;4.28;;;;;;;10.25;71.15;98283.53;5029696;28;20393;-55
2022/04/07 01:53:22;;;;;;;9.30;3.95;;;;;;;10.22;71.31;98275.81;5028867;28;20120;-56
2022/04/07 01:55:48;;;;;;;11.15;4.47;;;;;;;10.25;71.21;98271.28;5033251;28;20091;-56
2022/04/07 01:58:16;;;;;;;7.78;3.90;;;;;;;10.25;71.18;98278.28;5030082;28;20053;-55
2022/04/07 02:00:42;;;;;;;8.85;4.20;;;;;;;10.19;71.36;98273.34;5032882;28;20030;-56
2022/04/07 02:03:10;;;;;;;7.18;3.85;;;;;;;10.17;71.16;98269.94;5031620;28;20037;-56
2022/04/07 02:05:35;;;;;;;8.25;4.35;;;;;;;10.14;71.29;98268.34;5033563;28;20030;-56
2022/04/07 02:08:01;;;;;;;6.97;4.32;;;;;;;10.08;71.25;98272.13;5032485;28;20034;-56
2022/04/07 02:10:28;;;;;;;5.72;3.50;;;;;;;10.07;71.40;98264.34;5027677;28;20049;-55
2022/04/07 02:12:54;;;;;;;8.00;4.18;;;;;;;10.03;71.49;98266.28;5032739;28;20037;-56
2022/04/07 02:15:19;;;;;;;8.60;4.43;;;;;;;10.02;71.45;98266.38;5032051;28;20180;-55
2022/04/07 02:17:45;;;;;;;8.35;4.00;;;;;;;10.09;71.29;98267.72;5029498;28;20037;-56
2022/04/07 02:20:11;;;;;;;6.50;4.07;;;;;;;10.11;71.20;98252.75;5022068;28;20469;-55
2022/04/07 02:22:37;;;;;;;7.97;4.03;;;;;;;10.11;71.05;98256.22;5030896;28;20036;-55
2022/04/07 02:25:04;;;;;;;9.80;4.20;;;;;;;10.10;71.05;98249.28;5031816;28;20046;-55
2022/04/07 02:27:37;;;;;;;7.38;3.58;;;;;;;10.09;70.81;98258.09;5032661;28;20076;-57
2022/04/07 02:30:05;;;;;;;8.77;3.65;;;;;;;10.06;70.96;98253.00;5019486;28;20045;-56
2022/04/07 02:32:31;;;;;;;8.90;3.83;;;;;;;10.01;71.16;98255.00;5024786;28;20040;-55
2022/04/07 02:34:56;;;;;;;5.85;3.63;;;;;;;10.01;71.03;98255.00;5033064;28;20037;-57
2022/04/07 02:37:22;;;;;;;8.68;4.05;;;;;;;9.92;71.48;98247.63;5023851;28;20086;-57
2022/04/07 02:39:47;;;;;;;7.65;4.38;;;;;;;9.87;71.63;98241.78;5022784;28;20049;-57
2022/04/07 02:42:12;;;;;;;7.10;3.80;;;;;;;9.81;72.04;98242.97;5024575;28;20381;-55
2022/04/07 02:44:38;;;;;;;6.53;3.58;;;;;;;9.78;71.94;98232.63;5018780;28;20073;-56
2022/04/07 02:47:04;;;;;;;5.88;3.30;;;;;;;9.78;72.14;98231.78;5033020;28;20369;-56
2022/04/07 02:49:29;;;;;;;6.05;3.58;;;;;;;9.71;72.34;98228.63;5028516;28;20037;-55
2022/04/07 02:51:54;;;;;;;5.72;3.40;;;;;;;9.74;72.15;98228.50;5018520;28;20045;-56
2022/04/07 02:54:20;;;;;;;6.35;3.35;;;;;;;9.72;72.25;98239.97;5021133;28;20037;-55
2022/04/07 02:56:46;;;;;;;5.43;3.15;;;;;;;9.66;72.61;98238.53;5019858;28;20022;-57
2022/04/07 02:59:12;;;;;;;6.60;3.38;;;;;;;9.65;72.62;98231.56;5027580;28;20092;-57
2022/04/07 03:01:37;;;;;;;7.68;3.72;;;;;;;9.61;72.62;98225.66;5030645;28;20033;-55
2022/04/07 03:04:02;;;;;;;7.00;3.90;;;;;;;9.54;72.99;98223.44;5032166;28;20480;-54
2022/04/07 03:06:29;;;;;;;8.45;4.57;;;;;;;9.52;72.92;98214.78;5033135;28;20060;-56
2022/04/07 03:08:54;;;;;;;10.05;5.35;;;;;;;9.50;73.22;98212.25;5027333;28;20037;-56
2022/04/07 03:11:20;;;;;;;13.25;7.47;;;;;;;9.49;73.11;98220.19;5030093;28;20087;-55
2022/04/07 03:13:45;;;;;;;11.07;6.00;;;;;;;9.45;73.28;98208.16;5032812;28;20064;-56
2022/04/07 03:16:11;;;;;;;11.27;4.35;;;;;;;9.38;73.38;98202.41;5031481;28;20444;-57
2022/04/07 03:18:36;;;;;;;10.07;4.28;;;;;;;9.31;73.55;98211.50;5032198;28;20095;-55
2022/04/07 03:21:02;;;;;;;9.02;4.72;;;;;;;9.30;73.69;98210.66;5022501;28;20037;-57
2022/04/07 03:23:28;;;;;;;9.60;3.90;;;;;;;9.29;73.63;98202.84;5022975;28;20393;-57
2022/04/07 03:25:54;;;;;;;11.82;4.55;;;;;;;9.25;73.76;98198.69;5027380;28;20034;-56
2022/04/07 03:28:20;;;;;;;11.50;4.85;;;;;;;9.21;74.03;98205.00;5022637;28;20064;-57
2022/04/07 03:30:45;;;;;;;9.35;4.40;;;;;;;9.17;74.15;98198.22;5031248;28;20057;-57
2022/04/07 03:33:11;;;;;;;8.73;4.78;;;;;;;9.18;73.91;98205.19;5031152;28;20079;-55
2022/04/07 03:35:37;;;;;;;7.25;4.53;;;;;;;9.11;74.18;98199.41;5032530;28;20453;-56
2022/04/07 03:38:06;;;;;;;8.93;4.70;;;;;;;9.08;74.31;98205.63;5028842;28;20033;-57
2022/04/07 03:40:34;;;;;;;8.98;4.57;;;;;;;9.10;74.25;98201.19;5026357;28;20045;-56
2022/04/07 03:43:00;;;;;;;9.25;4.63;;;;;;;9.10;74.08;98205.56;5031007;28;20037;-58
2022/04/07 03:45:25;;;;;;;9.50;4.20;;;;;;;9.08;74.15;98199.53;5030357;28;20046;-57
2022/04/07 03:47:51;;;;;;;9.80;4.38;;;;;;;9.07;74.08;98203.94;5025345;28;20053;-56
2022/04/07 03:50:16;;;;;;;10.75;4.60;;;;;;;9.10;74.04;98202.94;5027201;28;20057;-56
2022/04/07 03:52:41;;;;;;;8.77;5.40;;;;;;;9.11;74.04;98195.00;5032572;28;20037;-56
2022/04/07 03:55:07;;;;;;;13.05;5.70;;;;;;;9.18;73.90;98192.09;5034232;28;20048;-56
2022/04/07 03:57:33;;;;;;;10.98;5.43;;;;;;;9.18;73.61;98189.47;5030291;28;20425;-56
2022/04/07 03:59:58;;;;;;;7.72;4.65;;;;;;;9.12;73.75;98193.22;5027549;28;20049;-57
2022/04/07 04:02:24;;;;;;;11.18;5.03;;;;;;;9.06;73.71;98183.91;5029134;28;20038;-57
2022/04/07 04:04:49;;;;;;;9.57;4.55;;;;;;;8.97;73.97;98188.75;5047773;28;20037;-56
2022/04/07 04:07:14;;;;;;;8.50;5.10;;;;;;;8.95;74.16;98183.59;5023744;28;20048;-55
2022/04/07 04:09:40;;;;;;;10.05;5.47;;;;;;;8.91;74.28;98183.84;5020239;28;20128;-57
2022/04/07 04:12:06;;;;;;;10.82;5.47;;;;;;;8.88;74.37;98187.44;5021563;28;20025;-57
2022/04/07 04:14:31;;;;;;;8.93;5.18;;;;;;;8.82;74.57;98182.53;5027502;28;20045;-57
2022/04/07 04:16:57;;;;;;;10.40;5.13;;;;;;;8.80;74.79;98185.19;5032938;28;20091;-58
2022/04/07 04:19:22;;;;;;;7.65;4.70;;;;;;;8.82;74.75;98185.16;5033032;28;20049;-58
2022/04/07 04:21:49;;;;;;;8.45;5.40;;;;;;;8.83;74.73;98185.06;5034480;28;20045;-57
2022/04/07 04:24:14;;;;;;;9.02;4.90;;;;;;;8.85;74.56;98192.81;5035660;28;20045;-57
2022/04/07 04:26:40;;;;;;;11.45;6.32;;;;;;;8.86;74.39;98192.78;5036308;28;20045;-57
2022/04/07 04:29:05;;;;;;;12.95;6.32;;;;;;;8.88;74.42;98190.06;5036044;28;20025;-57
2022/04/07 04:31:30;;;;;;;8.05;4.80;;;;;;;8.94;74.08;98197.63;5017001;28;20139;-59
2022/04/07 04:33:56;;;;;;;10.20;5.70;;;;;;;9.00;73.79;98191.22;5030426;28;20547;-57
2022/04/07 04:36:22;;;;;;;9.15;5.05;;;;;;;9.00;73.71;98192.06;5029522;28;20033;-54
2022/04/07 04:38:48;;;;;;;8.02;4.97;;;;;;;9.08;73.41;98189.91;5032428;28;20049;-56
2022/04/07 04:41:15;;;;;;;8.75;5.55;;;;;;;9.15;73.10;98189.63;5030057;28;20120;-56
2022/04/07 04:43:40;;;;;;;11.45;6.07;;;;;;;9.17;73.04;98185.13;5026068;28;20041;-57
2022/04/07 04:46:07;;;;;;;11.63;5.75;;;;;;;9.21;72.89;98184.06;5018148;28;20034;-57
2022/04/07 04:48:33;;;;;;;11.02;6.00;;;;;;;9.25;72.72;98180.34;5015712;28;20146;-57
2022/04/07 04:50:59;;;;;;;10.35;6.47;;;;;;;9.31;72.37;98183.50;5016972;28;20041;-56
2022/04/07 04:53:24;;;;;;;9.68;5.50;;;;;;;9.33;72.42;98191.28;5021427;28;20537;-56
2022/04/07 04:55:50;;;;;;;13.90;6.05;;;;;;;9.38;72.14;98186.69;5024450;28;20382;-56
2022/04/07 04:58:16;;;;;;;11.10;6.53;;;;;;;9.56;71.56;98185.69;5027604;28;20046;-56
2022/04/07 05:00:41;;;;;;;10.32;6.18;;;;;;;9.83;70.81;98182.56;5031247;28;20041;-57
2022/04/07 05:03:07;;;;;;;10.25;6.20;;;;;;;10.05;69.85;98177.00;5015755;28;20037;-55
2022/04/07 05:05:32;;;;;;;13.20;7.15;;;;;;;10.33;69.01;98178.97;5018944;28;20048;-56
2022/04/07 05:07:58;;;;;;;12.85;6.40;;;;;;;10.51;68.20;98177.97;5032094;28;20037;-57
2022/04/07 05:10:25;;;;;;;9.00;5.80;;;;;;;10.58;67.91;98174.06;5028719;28;20037;-56
2022/04/07 05:12:51;;;;;;;11.68;6.30;;;;;;;10.72;67.27;98172.41;5020561;28;20034;-56
2022/04/07 05:15:16;;;;;;;10.13;6.07;;;;;;;10.71;67.12;98176.00;5034287;28;20041;-56
2022/04/07 05:17:42;;;;;;;9.25;5.85;;;;;;;10.71;66.97;98170.75;5027302;28;20084;-57
2022/04/07 05:20:08;;;;;;;9.48;5.68;;;;;;;10.61;67.16;98180.91;5021829;28;20038;-57
2022/04/07 05:22:34;;;;;;;13.23;6.15;;;;;;;10.65;67.20;98181.56;5029380;28;20497;-56
2022/04/07 05:24:59;;;;;;;8.98;5.38;;;;;;;10.71;66.90;98170.75;5019167;28;20065;-56
2022/04/07 05:27:28;;;;;;;10.73;6.95;;;;;;;10.83;66.27;98172.66;5004573;28;20125;-57
2022/04/07 05:29:53;;;;;;;10.95;5.53;;;;;;;11.01;65.98;98178.63;5034525;28;20041;-58
2022/04/07 05:32:19;;;;;;;12.32;5.53;;;;;;;11.04;65.75;98173.19;5025619;28;20093;-57
2022/04/07 05:34:44;;;;;;;9.30;5.45;;;;;;;11.09;65.63;98166.75;5015481;28;20046;-56
2022/04/07 05:37:09;;;;;;;8.73;5.43;;;;;;;11.09;65.58;98163.25;5023359;28;20044;-58
2022/04/07 05:39:35;;;;;;;9.02;5.38;;;;;;;10.97;65.63;98164.84;5028852;28;20049;-58
2022/04/07 05:42:00;;;;;;;9.35;5.75;;;;;;;10.91;65.96;98157.28;5017986;28;20025;-57
2022/04/07 05:44:26;;;;;;;8.23;5.78;;;;;;;10.97;65.88;98159.59;5017558;28;20029;-57
2022/04/07 05:46:51;;;;;;;9.07;4.95;;;;;;;11.05;65.67;98154.72;5024080;28;20037;-56
2022/04/07 05:49:17;;;;;;;9.25;5.47;;;;;;;11.05;65.57;98156.47;5021917;28;20037;-57
2022/04/07 05:51:43;;;;;;;11.23;5.22;;;;;;;11.03;65.64;98147.84;5019241;28;20034;-58
2022/04/07 05:54:08;;;;;;;8.30;5.50;;;;;;;11.19;65.11;98148.63;5014171;28;20430;-58
2022/04/07 05:56:34;;;;;;;13.77;6.03;;;;;;;11.33;64.82;98138.16;5024605;28;20037;-56
2022/04/07 05:58:59;;;;;;;10.70;5.57;;;;;;;11.49;64.49;98140.69;5021939;28;20088;-58
2022/04/07 06:01:25;;;;;;;10.85;6.10;;;;;;;11.71;63.81;98145.47;5020335;28;20078;-57
2022/04/07 06:03:50;;;;;;;11.15;5.93;;;;;;;12.04;62.89;98144.34;5020563;28;20083;-57
2022/04/07 06:06:15;;;;;;;7.88;5.55;;;;;;;12.30;62.33;98140.91;5018967;28;20033;-54
2022/04/07 06:08:41;;;;;;;13.00;6.60;;;;;;;12.56;61.74;98133.09;5028128;28;20469;-58
2022/04/07 06:11:06;;;;;;;11.43;5.47;;;;;;;12.65;61.00;98131.69;5029418;28;20112;-57
2022/04/07 06:13:32;;;;;;;8.40;5.65;;;;;;;12.79;60.82;98134.22;5017533;28;20374;-57
2022/04/07 06:15:57;;;;;;;9.23;4.88;;;;;;;12.80;59.96;98134.13;5020936;28;20037;-56
2022/04/07 06:18:22;;;;;;;9.23;4.50;;;;;;;12.88;59.99;98130.97;5022445;28;20059;-55
2022/04/07 06:20:48;;;;;;;6.90;4.00;;;;;;;13.01;59.62;98128.38;5024513;28;20041;-55
2022/04/07 06:23:13;;;;;;;8.65;4.57;;;;;;;13.22;59.25;98120.81;5012036;28;20045;-57
2022/04/07 06:25:39;;;;;;;7.75;4.60;;;;;;;13.42;58.70;98130.03;5021218;28;20041;-55
2022/04/07 06:28:05;;;;;;;8.55;4.20;;;;;;;13.48;58.15;98138.34;5018487;28;20045;-58
2022/04/07 06:30:30;;;;;;;11.63;5.30;;;;;;;13.62;58.32;98128.66;5020828;28;20044;-57
2022/04/07 06:32:56;;;;;;;7.60;4.50;;;;;;;13.61;58.17;98129.59;5037595;28;20041;-58
2022/04/07 06:35:24;;;;;;;9.23;5.05;;;;;;;13.65;57.92;98121.38;5024754;28;20184;-58
2022/04/07 06:37:56;;;;;;;10.70;5.82;;;;;;;13.60;57.70;98123.47;5020249;28;20034;-58
2022/04/07 06:40:29;;;;;;;11.15;5.05;;;;;;;13.56;57.62;98116.72;5025470;28;20107;-58
2022/04/07 06:42:56;;;;;;;8.07;4.68;;;;;;;13.58;58.10;98113.97;5026554;28;20123;-59
2022/04/07 06:45:22;;;;;;;7.53;4.25;;;;;;;13.55;57.70;98113.22;5030323;28;20778;-59
2022/04/07 06:47:49;;;;;;;7.53;4.30;;;;;;;13.64;58.00;98103.81;5024216;28;20039;-57
2022/04/07 06:50:16;;;;;;;8.55;4.47;;;;;;;13.61;57.85;98100.59;5025384;28;20519;-57
2022/04/07 06:52:42;;;;;;;8.00;4.70;;;;;;;13.74;57.57;98093.47;5029703;28;20038;-57
2022/04/07 06:55:09;;;;;;;9.60;4.50;;;;;;;13.92;57.24;98094.78;5027399;28;20042;-56
2022/04/07 06:57:59;;;;;;;9.13;4.78;;;;;;;14.08;55.92;98088.41;5024300;28;20053;-57
2022/04/07 07:00:29;;;;;;;8.05;3.92;;;;;;;14.21;55.44;98081.31;5022885;28;20136;-57
2022/04/07 07:02:57;;;;;;;8.63;4.50;;;;;;;14.41;55.80;98085.97;5027345;28;20041;-58
2022/04/07 07:05:27;;;;;;;7.10;4.22;;;;;;;14.46;55.22;98086.47;5018964;28;20476;-57
2022/04/07 07:07:53;;;;;;;6.78;4.13;;;;;;;14.45;55.76;98083.97;5030876;28;20036;-56
2022/04/07 07:10:20;;;;;;;6.60;4.43;;;;;;;14.40;55.02;98075.50;5017820;28;20029;-57
2022/04/07 07:12:47;;;;;;;7.65;4.18;;;;;;;14.11;55.08;98096.13;5018751;28;20038;-57
2022/04/07 07:15:12;;;;;;;7.93;4.07;;;;;;;14.43;55.49;98084.06;5025965;28;20036;-57
2022/04/07 07:17:39;;;;;;;5.85;4.07;;;;;;;14.61;55.21;98079.25;5017393;28;20033;-58
2022/04/07 07:20:06;;;;;;;8.68;4.80;;;;;;;14.80;54.73;98078.69;5023445;28;20073;-58
2022/04/07 07:22:31;;;;;;;5.00;3.78;;;;;;;15.11;53.95;98066.63;5012887;28;20038;-59
2022/04/07 07:24:58;;;;;;;10.32;4.05;;;;;;;15.06;54.06;98067.97;5031108;28;20037;-58
2022/04/07 07:27:23;;;;;;;8.93;4.82;;;;;;;14.98;54.08;98061.44;5013719;28;20041;-57
2022/04/07 07:29:49;;;;;;;8.43;4.70;;;;;;;14.99;53.75;98057.00;5026468;28;20385;-57
2022/04/07 07:32:14;;;;;;;9.10;4.30;;;;;;;14.95;53.76;98053.75;5036418;28;20392;-57
2022/04/07 07:34:40;;;;;;;7.88;4.80;;;;;;;14.88;54.14;98044.63;5023857;28;20064;-58
2022/04/07 07:37:05;;;;;;;6.40;4.05;;;;;;;14.93;53.94;98042.47;5028498;28;20044;-59
2022/04/07 07:39:31;;;;;;;8.68;4.13;;;;;;;14.70;53.92;98041.56;5026599;28;20140;-59
2022/04/07 07:41:56;;;;;;;7.50;4.00;;;;;;;14.81;53.97;98051.31;5026372;28;20037;-58
2022/04/07 07:44:21;;;;;;;7.45;4.47;;;;;;;14.82;53.89;98033.66;5031680;28;20136;-58
2022/04/07 07:46:47;;;;;;;7.55;4.22;;;;;;;14.94;53.84;98030.91;5030465;28;20026;-58
2022/04/07 07:49:13;;;;;;;8.25;4.00;;;;;;;15.01;53.61;98033.94;5029435;28;20033;-58
2022/04/07 07:51:38;;;;;;;13.32;4.72;;;;;;;14.98;53.73;98029.72;5009911;28;20057;-58
2022/04/07 07:54:04;;;;;;;8.07;4.57;;;;;;;15.17;53.37;98026.50;5024581;28;20038;-58
2022/04/07 07:56:30;;;;;;;8.93;4.32;;;;;;;15.14;53.09;98023.25;5016072;28;20066;-58
2022/04/07 07:58:55;;;;;;;9.18;4.80;;;;;;;15.22;53.13;98028.78;5026769;28;20073;-57
2022/04/07 08:01:20;;;;;;;8.13;4.38;;;;;;;15.41;52.60;98023.75;5027147;28;20536;-56
2022/04/07 08:03:47;;;;;;;7.13;4.35;;;;;;;15.61;52.12;98022.16;5028214;28;20091;-58
2022/04/07 08:06:13;;;;;;;6.57;4.43;;;;;;;15.67;52.14;98020.84;5024055;28;20044;-58
2022/04/07 08:08:39;;;;;;;9.20;4.30;;;;;;;15.58;52.23;98021.56;5030308;28;20042;-57
2022/04/07 08:11:04;;;;;;;6.60;4.50;;;;;;;15.57;52.17;98018.09;5035807;28;20049;-56
2022/04/07 08:13:30;;;;;;;8.98;4.18;;;;;;;15.58;52.04;98005.69;5031068;28;20033;-58
2022/04/07 08:15:55;;;;;;;6.93;4.20;;;;;;;15.48;51.91;98026.75;5028399;28;20049;-58
2022/04/07 08:18:21;;;;;;;9.80;4.10;;;;;;;15.72;51.80;98010.75;5024003;28;20109;-58
2022/04/07 08:20:46;;;;;;;7.47;4.60;;;;;;;15.83;51.73;98008.06;5031060;28;20095;-59
2022/04/07 08:23:12;;;;;;;7.82;4.55;;;;;;;15.95;51.46;98000.94;5033207;28;20113;-58
2022/04/07 08:25:38;;;;;;;6.90;4.28;;;;;;;16.16;51.15;98001.03;5054714;28;20124;-58
2022/04/07 08:28:04;;;;;;;6.60;4.28;;;;;;;16.27;50.84;97993.00;5036744;28;20448;-57
2022/04/07 08:30:34;;;;;;;6.80;4.18;;;;;;;16.32;50.67;98000.56;5024585;28;20037;-57
2022/04/07 08:33:00;;;;;;;10.73;4.82;;;;;;;16.41;50.09;97995.38;5015792;28;20042;-57
2022/04/07 08:35:25;;;;;;;6.35;4.03;;;;;;;16.84;49.50;98002.41;5015955;28;20044;-58
2022/04/07 08:37:51;;;;;;;6.80;4.25;;;;;;;16.82;49.49;98006.16;5015833;28;20112;-58
2022/04/07 08:40:22;;;;;;;7.10;4.63;;;;;;;16.72;48.22;97998.09;5015196;28;20069;-57
2022/04/07 08:42:48;;;;;;;7.90;3.97;;;;;;;16.84;49.00;97990.97;5015782;28;20037;-58
2022/04/07 08:45:13;;;;;;;7.18;4.30;;;;;;;16.94;48.45;97992.66;5015283;28;20030;-58
2022/04/07 08:47:40;;;;;;;8.95;4.78;;;;;;;17.04;48.56;97983.94;5014589;28;20034;-57
2022/04/07 08:50:07;;;;;;;6.05;4.28;;;;;;;17.19;47.79;97975.47;5015698;28;20026;-57
2022/04/07 08:52:34;;;;;;;7.50;3.72;;;;;;;17.26;47.77;97974.97;5014554;28;20057;-58
2022/04/07 08:55:00;;;;;;;6.57;4.28;;;;;;;17.31;47.71;97970.06;5015585;28;20104;-56
2022/04/07 08:57:26;;;;;;;7.03;4.40;;;;;;;17.26;47.54;97981.09;5015331;28;20501;-56
2022/04/07 08:59:52;;;;;;;6.05;4.03;;;;;;;17.61;46.95;97969.22;5014979;28;20041;-57
2022/04/07 09:02:17;;;;;;;6.57;4.05;;;;;;;17.91;46.25;97961.22;5015357;28;20030;-57
2022/04/07 09:04:44;;;;;;;5.97;4.00;;;;;;;18.13;45.95;97956.59;5015219;28;20029;-57
2022/04/07 09:07:12;;;;;;;8.77;4.85;;;;;;;18.14;44.89;97958.25;5015333;28;20034;-58
2022/04/07 09:09:39;;;;;;;6.55;3.80;;;;;;;18.27;45.28;97944.69;5015372;28;20481;-59
2022/04/07 09:12:05;;;;;;;6.72;4.32;;;;;;;18.15;45.09;97951.97;5015087;28;20489;-58
2022/04/07 09:14:38;;;;;;;5.32;3.30;;;;;;;18.34;44.33;97948.47;5026217;28;20029;-59
2022/04/07 09:17:03;;;;;;;6.18;3.78;;;;;;;18.08;44.30;97949.03;5034736;28;20163;-58
2022/04/07 09:19:30;;;;;;;5.07;3.45;;;;;;;18.18;45.01;97935.75;5035166;28;20116;-58
2022/04/07 09:22:12;;;;;;;6.07;3.60;;;;;;;18.31;43.34;97936.31;5023762;28;20033;-58
2022/04/07 09:24:40;;;;;;;5.07;3.40;;;;;;;18.59;44.31;97936.41;5018567;28;20065;-57
2022/04/07 09:27:08;;;;;;;5.35;3.72;;;;;;;18.59;43.67;97939.91;5029789;28;20045;-59
2022/04/07 09:29:54;;;;;;;6.80;3.80;;;;;;;18.76;42.97;97929.56;5034712;28;20539;-59
2022/04/07 09:32:20;;;;;;;6.72;3.33;;;;;;;18.60;43.80;97930.13;5034987;28;20500;-59
2022/04/07 09:34:56;;;;;;;7.75;4.00;;;;;;;18.76;43.91;97914.44;5034729;28;20029;-59
2022/04/07 09:37:22;;;;;;;11.23;5.07;;;;;;;18.45;43.68;97911.94;5034789;28;20033;-58
2022/04/07 09:40:10;;;;;;;5.72;3.65;;;;;;;18.73;42.78;97913.88;5034215;28;20140;-59
2022/04/07 09:42:36;;;;;;;4.20;3.15;;;;;;;18.87;43.08;97906.28;5034613;28;20461;-58
2022/04/07 09:45:04;;;;;;;5.40;3.33;;;;;;;18.56;42.11;97896.81;5034375;28;20036;-58
2022/04/07 09:47:39;;;;;;;7.35;3.53;;;;;;;18.71;40.58;97898.03;5034333;28;20069;-59
2022/04/07 09:50:07;;;;;;;5.63;3.22;;;;;;;18.80;41.80;97902.53;5033890;28;20045;-58
2022/04/07 09:52:32;;;;;;;4.05;2.97;;;;;;;18.87;41.76;97892.97;5033260;28;20128;-58
2022/04/07 09:55:06;;;;;;;4.78;2.60;;;;;;;18.93;41.13;97887.06;5034072;28;20112;-58
2022/04/07 09:57:33;;;;;;;4.57;3.03;;;;;;;18.87;41.95;97882.34;5033879;28;20034;-58
2022/04/07 10:00:01;;;;;;;4.05;2.67;;;;;;;18.85;41.58;97881.63;5034453;28;20034;-58
2022/04/07 10:02:26;;;;;;;5.05;2.33;;;;;;;18.94;41.34;97875.41;5033945;28;20483;-59
2022/04/07 10:04:54;;;;;;;3.88;2.22;;;;;;;18.87;40.93;97869.03;5033994;28;20108;-59
2022/04/07 10:07:20;;;;;;;5.80;3.53;;;;;;;18.58;41.26;97870.91;5034411;28;20042;-59
2022/04/07 10:09:46;;;;;;;6.15;4.95;;;;;;;18.62;41.83;97859.84;5034375;28;20038;-59
2022/04/07 10:12:12;;;;;;;4.82;2.80;;;;;;;18.84;41.54;97850.69;5033886;28;20038;-57
2022/04/07 10:14:39;;;;;;;3.28;2.58;;;;;;;19.19;41.14;97851.81;5033977;28;20041;-57
2022/04/07 10:17:06;;;;;;;6.38;4.47;;;;;;;19.11;39.94;97841.03;5033874;28;20223;-57
2022/04/07 10:19:51;;;;;;;5.30;2.45;;;;;;;19.45;40.35;97852.72;5033523;28;20068;-57
2022/04/07 10:22:45;;;;;;;4.65;2.92;;;;;;;19.06;39.43;97840.66;5033913;28;20501;-58
2022/04/07 10:25:12;;;;;;;21.67;19.42;;;;;;;18.76;40.82;97844.44;5033705;28;20028;-58
2022/04/07 10:27:45;;;;;;;6.78;5.40;;;;;;;18.22;41.13;97836.16;5033466;28;20048;-58
2022/04/07 10:30:13;;;;;;;8.40;7.60;;;;;;;17.99;42.14;97832.97;5014595;28;20030;-58
2022/04/07 10:32:45;;;;;;;8.68;7.35;;;;;;;17.88;42.05;97833.97;5014129;28;20037;-58
2022/04/07 10:35:28;;;;;;;5.38;4.35;;;;;;;18.15;41.88;97819.09;5014005;28;20033;-58
2022/04/07 10:37:54;;;;;;;6.30;3.20;;;;;;;18.77;41.64;97828.31;5016505;28;20049;-57
2022/04/07 10:40:35;;;;;;;381.25;233.52;;;;;;;18.36;41.05;97830.41;5019833;28;20046;-57
2022/04/07 10:43:14;;;;;;;88.80;53.95;;;;;;;18.34;41.04;97815.56;5013219;28;20449;-58
2022/04/07 10:45:41;;;;;;;173.32;76.70;;;;;;;18.25;42.06;97808.47;5019114;28;20037;-58
2022/04/07 10:48:26;;;;;;;39.42;18.95;;;;;;;18.25;41.36;97809.28;5031411;28;20076;-58
2022/04/07 10:50:57;;;;;;;26.20;11.57;;;;;;;18.13;41.68;97813.94;5015154;28;20041;-58
2022/04/07 10:53:33;;;;;;;98.50;40.47;;;;;;;18.08;41.89;97802.06;5021605;28;20044;-57
2022/04/07 10:56:01;;;;;;;89.28;39.85;;;;;;;18.33;42.29;97793.47;5017283;28;20484;-57
2022/04/07 10:58:49;;;;;;;51.53;28.52;;;;;;;18.41;41.83;97782.09;5013420;28;20108;-58
2022/04/07 11:01:31;;;;;;;15.15;8.30;;;;;;;18.42;42.20;97773.97;5021487;28;20052;-57
2022/04/07 11:04:21;;;;;;;12.23;7.50;;;;;;;18.37;41.90;97765.59;5021100;28;20087;-56
2022/04/07 11:07:08;;;;;;;34.97;22.15;;;;;;;17.91;41.97;97764.63;5029089;28;20388;-58
2022/04/07 11:09:57;;;;;;;50.05;32.70;;;;;;;17.98;42.36;97752.44;5021579;28;20032;-58
2022/04/07 11:12:28;;;;;;;49.35;28.70;;;;;;;18.15;42.74;97750.00;5026586;28;20100;-58
2022/04/07 11:15:03;;;;;;;141.85;76.45;;;;;;;18.28;42.65;97734.59;5030851;28;20095;-58
2022/04/07 11:17:47;;;;;;;45.45;27.00;;;;;;;18.63;42.27;97741.88;5027748;28;20064;-58
2022/04/07 11:20:20;;;;;;;16.00;9.73;;;;;;;18.87;40.95;97733.34;5025256;28;20041;-57
2022/04/07 11:22:49;;;;;;;13.10;7.57;;;;;;;19.08;40.71;97737.56;5023892;28;20095;-58
2022/04/07 11:25:20;;;;;;;8.80;5.55;;;;;;;19.36;40.32;97722.34;5025629;28;20533;-58
2022/04/07 11:28:17;;;;;;;14.15;9.52;;;;;;;19.73;38.48;97711.53;5026706;28;20057;-59
2022/04/07 11:30:44;;;;;;;10.35;5.20;;;;;;;19.91;38.73;97715.00;5026412;28;20381;-57
2022/04/07 11:33:28;;;;;;;7.88;6.30;;;;;;;20.00;38.21;97715.88;5020824;28;20036;-57